Aeroporto :
LOGIN :

Iscrizione | Disclaimer

   EN    FR    IT 

 










Sommario :    VFR   VFR Marginale   IFR   IFR Intensivo   IFR Molto Intensivo
Visibilità : 
Base nubi : 
>= 8 km
>= 3000ft
5 / 8 km
1000 / 3000 ft
1500m / 5 km
500 / 1000 ft
800 / 1500m
200 / 500 ft
< 800m
< 200 ft
Simboli :   Temporali  Nebbia  Neve Forte  Precipitazioni Forti  Vento > 20 kt
SIGMETs :   Varie  Temporali  Ghiacco  Turbolenza  Onda orograficha  Ceneri Vulcaniche







- Altitudine del aeroporto : 235 ft
- Codice IATA : BZG


EPBY - Bydgoszcz

ULTIMO METAR :
  • 221130Z 27013KT 9999 SCT049 24/10 Q1021

METARs OBSOLETI :
  • 221100Z 27010KT 230V320 9999 FEW047 24/09 Q1021
  • 221030Z 28011KT 240V320 9999 FEW046 23/10 Q1021
  • 221000Z 27010KT 230V310 9999 FEW040 23/11 Q1021
  • 220930Z 26012KT 230V290 9999 FEW036 22/11 Q1021
  • 220900Z 26011KT 230V300 9999 FEW033 22/12 Q1021
  • 220830Z 30012KT 9999 FEW032 20/12 Q1021

TAF TAF EPBY
Valido dal 22 a 12 ore il 23 a 12 ore UTC


221130Z 2212/2312 28010KT 9999 SCT040
TEMPO 2212/2217 30015G25KT
BECMG 2301/2303 -RA BKN013
TEMPO 2301/2312 4500 RA SCT004 BKN008
Nessun NOTAM noto per questo aeroporto.



MetMap, La meteo Aeronautica in un colpo d'occhio ! - Copyright ORBIFLY Dicembre 2007 - Disclaimer

ORBIFLY MET'MAP TEAM :

Programmazione e sviluppo : Alexandra Zaïnal
Concezione e sviluppo : Baudouin d'Aumeries
Co-Programmazione e sviluppo : Marc-Olivier Méhu
Supporto tecnico e logistico : Manuel Goepfert
Aiuto per la traduzione : Arnaldo La Scala

Contatto : metmap@orbifly.com




FONTI E CREDITI :

   NOAA